createdAt,value
2018-03-23T00:00:31.856Z,997.32
2018-03-23T00:01:31.866Z,997.29
2018-03-23T00:02:31.878Z,997.31
2018-03-23T00:03:31.888Z,997.28
2018-03-23T00:04:31.900Z,997.27
2018-03-23T00:05:31.910Z,997.29
2018-03-23T00:06:31.921Z,997.28
2018-03-23T00:07:31.936Z,997.31
2018-03-23T00:08:31.942Z,997.29
2018-03-23T00:09:31.954Z,997.31
2018-03-23T00:10:31.965Z,997.29
2018-03-23T00:11:31.976Z,997.3
2018-03-23T00:12:31.988Z,997.3
2018-03-23T00:13:31.997Z,997.29
2018-03-23T00:14:32.009Z,997.29
2018-03-23T00:15:32.021Z,997.32
2018-03-23T00:16:32.031Z,997.35
2018-03-23T00:17:32.045Z,997.35
2018-03-23T00:18:32.058Z,997.38
2018-03-23T00:19:32.062Z,997.34
2018-03-23T00:20:32.093Z,997.37
2018-03-23T00:21:32.085Z,997.36
2018-03-23T00:22:32.096Z,997.36
2018-03-23T00:23:32.107Z,997.38
2018-03-23T00:24:32.121Z,997.38
2018-03-23T00:25:32.129Z,997.44
2018-03-23T00:26:32.145Z,997.38
2018-03-23T00:27:32.150Z,997.44
2018-03-23T00:28:32.162Z,997.45
2018-03-23T00:29:32.175Z,997.44
2018-03-23T00:30:32.184Z,997.43
2018-03-23T00:31:32.195Z,997.47
2018-03-23T00:32:32.207Z,997.44
2018-03-23T00:33:32.217Z,997.49
2018-03-23T00:34:32.229Z,997.44
2018-03-23T00:35:32.241Z,997.45
2018-03-23T00:36:32.249Z,997.46
2018-03-23T00:37:32.261Z,997.45
2018-03-23T00:38:32.270Z,997.43
2018-03-23T00:39:32.282Z,997.46
2018-03-23T00:40:32.294Z,997.44
2018-03-23T00:41:32.313Z,997.42
2018-03-23T00:42:32.314Z,997.42
2018-03-23T00:43:32.326Z,997.4
2018-03-23T00:44:32.338Z,997.43
2018-03-23T00:45:32.347Z,997.45
2018-03-23T00:46:32.358Z,997.41
2018-03-23T00:47:32.371Z,997.4
2018-03-23T00:48:32.383Z,997.42
2018-03-23T00:49:32.391Z,997.36
2018-03-23T00:50:32.405Z,997.38
2018-03-23T00:51:32.416Z,997.39
2018-03-23T00:52:32.426Z,997.37
2018-03-23T00:53:32.442Z,997.38
2018-03-23T00:54:32.446Z,997.34
2018-03-23T00:55:32.459Z,997.35
2018-03-23T00:56:32.468Z,997.34
2018-03-23T00:57:32.480Z,997.29
2018-03-23T00:58:32.491Z,997.3
2018-03-23T00:59:32.543Z,997.27
2018-03-23T01:00:32.514Z,997.27
2018-03-23T01:01:32.523Z,997.29
2018-03-23T01:02:32.535Z,997.28
2018-03-23T01:03:32.544Z,997.27
2018-03-23T01:04:32.557Z,997.26
2018-03-23T01:05:32.566Z,997.23
2018-03-23T01:06:32.633Z,997.25
2018-03-23T01:07:32.593Z,997.16
2018-03-23T01:08:32.600Z,997.21
2018-03-23T01:09:32.613Z,997.21
2018-03-23T01:10:32.627Z,997.16
2018-03-23T01:11:32.632Z,997.2
2018-03-23T01:12:32.644Z,997.2
2018-03-23T01:13:32.656Z,997.19
2018-03-23T01:14:32.723Z,997.21
2018-03-23T01:15:32.677Z,997.19
2018-03-23T01:16:32.689Z,997.17
2018-03-23T01:17:32.703Z,997.2
2018-03-23T01:18:32.710Z,997.19
2018-03-23T01:19:32.720Z,997.17
2018-03-23T01:20:32.736Z,997.17
2018-03-23T01:21:32.743Z,997.16
2018-03-23T01:22:32.753Z,997.15
2018-03-23T01:23:32.764Z,997.12
2018-03-23T01:24:32.785Z,997.13
2018-03-23T01:25:32.785Z,997.11
2018-03-23T01:26:32.797Z,997.09
2018-03-23T01:27:32.810Z,997.14
2018-03-23T01:28:32.821Z,997.13
2018-03-23T01:29:32.831Z,997.12
2018-03-23T01:30:32.842Z,997.07
2018-03-23T01:31:32.852Z,997.08
2018-03-23T01:32:32.863Z,997.09
2018-03-23T01:33:32.879Z,997.07
2018-03-23T01:34:32.887Z,997.12
2018-03-23T01:35:32.898Z,997.13
2018-03-23T01:36:32.948Z,997.11
2018-03-23T01:37:32.918Z,997.14
2018-03-23T01:38:32.932Z,997.14
2018-03-23T01:39:32.943Z,997.14
2018-03-23T01:40:32.952Z,997.14
2018-03-23T01:41:32.974Z,997.11
2018-03-23T01:42:32.974Z,997.13
2018-03-23T01:43:32.985Z,997.14
2018-03-23T01:44:32.999Z,997.15
2018-03-23T01:45:33.007Z,997.14
2018-03-23T01:46:33.019Z,997.15
2018-03-23T01:47:33.030Z,997.13
2018-03-23T01:48:33.046Z,997.13
2018-03-23T01:49:33.057Z,997.09
2018-03-23T01:50:33.063Z,997.11
2018-03-23T01:51:33.073Z,997.04
2018-03-23T01:52:33.085Z,997.06
2018-03-23T01:53:33.095Z,997.03
2018-03-23T01:54:33.106Z,997.03
2018-03-23T01:55:33.118Z,997.05
2018-03-23T01:56:33.129Z,997.06
2018-03-23T01:57:33.144Z,997.02
2018-03-23T01:58:33.149Z,997.02
2018-03-23T01:59:33.161Z,997.04
2018-03-23T02:00:33.173Z,997.05
2018-03-23T02:01:33.184Z,997.03
2018-03-23T02:02:33.195Z,997.03
2018-03-23T02:03:33.206Z,997.01
2018-03-23T02:04:33.217Z,996.99
2018-03-23T02:05:33.228Z,997.02
2018-03-23T02:06:33.239Z,997
2018-03-23T02:07:33.249Z,997
2018-03-23T02:08:33.260Z,996.98
2018-03-23T02:09:33.273Z,996.97
2018-03-23T02:10:33.282Z,997
2018-03-23T02:11:33.296Z,996.98
2018-03-23T02:12:33.333Z,996.99
2018-03-23T02:13:33.317Z,996.94
2018-03-23T02:14:33.326Z,996.95
2018-03-23T02:15:33.339Z,996.96
2018-03-23T02:16:33.348Z,996.91
2018-03-23T02:17:33.359Z,996.92
2018-03-23T02:18:33.374Z,996.94
2018-03-23T02:19:33.383Z,996.89
2018-03-23T02:20:33.392Z,996.89
2018-03-23T02:21:33.409Z,996.88
2018-03-23T02:22:33.415Z,996.87
2018-03-23T02:23:33.426Z,996.88
2018-03-23T02:24:33.447Z,996.87
2018-03-23T02:25:33.447Z,996.84
2018-03-23T02:26:33.459Z,996.83
2018-03-23T02:27:33.470Z,996.86
2018-03-23T02:28:33.498Z,996.84
2018-03-23T02:29:33.491Z,996.81
2018-03-23T02:30:33.504Z,996.83
2018-03-23T02:31:33.514Z,996.81
2018-03-23T02:32:33.533Z,996.8
2018-03-23T02:33:33.544Z,996.79
2018-03-23T02:34:33.548Z,996.76
2018-03-23T02:35:33.558Z,996.77
2018-03-23T02:36:33.571Z,996.75
2018-03-23T02:37:33.580Z,996.79
2018-03-23T02:38:33.591Z,996.77
2018-03-23T02:39:33.601Z,996.78
2018-03-23T02:40:33.614Z,996.74
2018-03-23T02:41:33.625Z,996.76
2018-03-23T02:42:33.635Z,996.76
2018-03-23T02:43:33.653Z,996.79
2018-03-23T02:44:33.658Z,996.76
2018-03-23T02:45:33.671Z,996.76
2018-03-23T02:46:33.680Z,996.72
2018-03-23T02:47:33.691Z,996.77
2018-03-23T02:48:33.704Z,996.72
2018-03-23T02:49:33.717Z,996.71
2018-03-23T02:50:33.723Z,996.7
2018-03-23T02:51:33.734Z,996.69
2018-03-23T02:52:33.745Z,996.71
2018-03-23T02:53:33.756Z,996.67
2018-03-23T02:54:33.772Z,996.65
2018-03-23T02:55:33.779Z,996.63
2018-03-23T02:56:33.790Z,996.62
2018-03-23T02:57:33.801Z,996.59
2018-03-23T02:58:33.811Z,996.59
2018-03-23T02:59:33.831Z,996.59
2018-03-23T03:00:33.834Z,996.55
2018-03-23T03:01:33.895Z,996.59
2018-03-23T03:02:33.856Z,996.58
2018-03-23T03:03:33.869Z,996.56
2018-03-23T03:04:33.882Z,996.61
2018-03-23T03:05:33.891Z,996.64
2018-03-23T03:06:33.916Z,996.61
2018-03-23T03:07:33.913Z,996.65
2018-03-23T03:08:33.922Z,996.63
2018-03-23T03:09:33.934Z,996.62
2018-03-23T03:10:33.949Z,996.64
2018-03-23T03:11:33.956Z,996.56
2018-03-23T03:12:33.966Z,996.56
2018-03-23T03:13:33.978Z,996.57
2018-03-23T03:14:33.990Z,996.56
2018-03-23T03:15:34.000Z,996.61
2018-03-23T03:16:34.067Z,996.57
2018-03-23T03:17:34.023Z,996.56
2018-03-23T03:18:34.034Z,996.54
2018-03-23T03:19:34.045Z,996.57
2018-03-23T03:20:34.056Z,996.55
2018-03-23T03:21:34.117Z,996.6
2018-03-23T03:22:34.076Z,996.6
2018-03-23T03:23:34.090Z,996.58
2018-03-23T03:24:34.099Z,996.58
2018-03-23T03:25:34.111Z,996.6
2018-03-23T03:26:34.121Z,996.58
2018-03-23T03:27:34.133Z,996.58
2018-03-23T03:28:34.158Z,996.59
2018-03-23T03:29:34.155Z,996.54
2018-03-23T03:30:34.167Z,996.55
2018-03-23T03:31:34.178Z,996.53
2018-03-23T03:32:34.188Z,996.54
2018-03-23T03:33:34.199Z,996.54
2018-03-23T03:34:34.210Z,996.47
2018-03-23T03:35:34.222Z,996.46
2018-03-23T03:36:34.235Z,996.47
2018-03-23T03:37:34.245Z,996.48
2018-03-23T03:38:34.255Z,996.51
2018-03-23T03:39:34.267Z,996.47
2018-03-23T03:40:34.276Z,996.47
2018-03-23T03:41:34.337Z,996.44
2018-03-23T03:42:34.301Z,996.48
2018-03-23T03:43:34.310Z,996.45
2018-03-23T03:44:34.320Z,996.48
2018-03-23T03:45:34.331Z,996.45
2018-03-23T03:46:34.394Z,996.45
2018-03-23T03:47:34.355Z,996.45
2018-03-23T03:48:34.366Z,996.48
2018-03-23T03:49:34.376Z,996.47
2018-03-23T03:50:34.389Z,996.41
2018-03-23T03:51:34.398Z,996.42
2018-03-23T03:52:34.414Z,996.39
2018-03-23T03:53:34.420Z,996.38
2018-03-23T03:54:34.433Z,996.37
2018-03-23T03:55:34.442Z,996.33
2018-03-23T03:56:34.454Z,996.37
2018-03-23T03:57:34.466Z,996.31
2018-03-23T03:58:34.477Z,996.34
2018-03-23T03:59:34.487Z,996.31
2018-03-23T04:00:34.499Z,996.29
2018-03-23T04:01:34.509Z,996.32
2018-03-23T04:02:34.520Z,996.33
2018-03-23T04:03:34.531Z,996.34
2018-03-23T04:04:34.543Z,996.4
2018-03-23T04:05:34.555Z,996.4
2018-03-23T04:06:34.567Z,996.38
2018-03-23T04:07:34.575Z,996.39
2018-03-23T04:08:34.588Z,996.38
2018-03-23T04:09:34.600Z,996.35
2018-03-23T04:10:34.609Z,996.34
2018-03-23T04:11:34.620Z,996.37
2018-03-23T04:12:34.631Z,996.37
2018-03-23T04:13:34.646Z,996.38
2018-03-23T04:14:34.654Z,996.4
2018-03-23T04:15:34.668Z,996.39
2018-03-23T04:16:34.675Z,996.36
2018-03-23T04:17:34.688Z,996.41
2018-03-23T04:18:34.699Z,996.39
2018-03-23T04:19:34.708Z,996.42
2018-03-23T04:20:34.720Z,996.41
2018-03-23T04:21:34.733Z,996.38
2018-03-23T04:22:34.744Z,996.36
2018-03-23T04:23:34.754Z,996.33
2018-03-23T04:24:34.764Z,996.35
2018-03-23T04:25:34.775Z,996.36
2018-03-23T04:26:34.786Z,996.33
2018-03-23T04:27:34.799Z,996.36
2018-03-23T04:28:34.808Z,996.36
2018-03-23T04:29:34.820Z,996.37
2018-03-23T04:30:34.833Z,996.33
2018-03-23T04:31:34.851Z,996.33
2018-03-23T04:32:34.857Z,996.31
2018-03-23T04:33:34.865Z,996.27
2018-03-23T04:34:34.877Z,996.27
2018-03-23T04:35:34.886Z,996.31
2018-03-23T04:36:34.899Z,996.3
2018-03-23T04:37:34.909Z,996.28
2018-03-23T04:38:34.921Z,996.29
2018-03-23T04:39:34.931Z,996.27
2018-03-23T04:40:34.943Z,996.23
2018-03-23T04:41:34.954Z,996.29
2018-03-23T04:42:34.965Z,996.25
2018-03-23T04:43:34.979Z,996.21
2018-03-23T04:44:34.988Z,996.2
2018-03-23T04:45:34.999Z,996.2
2018-03-23T04:46:35.012Z,996.21
2018-03-23T04:47:35.020Z,996.19
2018-03-23T04:48:35.038Z,996.17
2018-03-23T04:49:35.044Z,996.16
2018-03-23T04:50:35.054Z,996.18
2018-03-23T04:51:35.065Z,996.17
2018-03-23T04:52:35.077Z,996.14
2018-03-23T04:53:35.087Z,996.16
2018-03-23T04:54:35.099Z,996.19
2018-03-23T04:55:35.110Z,996.1
2018-03-23T04:56:35.129Z,996.17
2018-03-23T04:57:35.136Z,996.16
2018-03-23T04:58:35.145Z,996.12
2018-03-23T04:59:35.155Z,996.11
2018-03-23T05:00:35.166Z,996.08
2018-03-23T05:01:35.177Z,996.09
2018-03-23T05:02:35.188Z,996.12
2018-03-23T05:03:35.199Z,996.1
2018-03-23T05:04:35.210Z,996.05
2018-03-23T05:05:35.221Z,996.12
2018-03-23T05:06:35.232Z,996.11
2018-03-23T05:07:35.245Z,996.12
2018-03-23T05:08:35.255Z,996.07
2018-03-23T05:09:35.266Z,996.11
2018-03-23T05:10:35.277Z,996.06
2018-03-23T05:11:35.288Z,996.09
2018-03-23T05:12:35.299Z,996.1
2018-03-23T05:13:35.310Z,996.08
2018-03-23T05:14:35.323Z,996.13
2018-03-23T05:15:35.333Z,996.05
2018-03-23T05:16:35.344Z,996.09
2018-03-23T05:17:35.355Z,996.07
2018-03-23T05:18:35.367Z,996.08
2018-03-23T05:19:35.379Z,996.1
2018-03-23T05:20:35.389Z,996.08
2018-03-23T05:21:35.399Z,996.07
2018-03-23T05:22:35.412Z,996.12
2018-03-23T05:23:35.422Z,996.09
2018-03-23T05:24:35.433Z,996.05
2018-03-23T05:25:35.448Z,996.05
2018-03-23T05:26:35.460Z,996.09
2018-03-23T05:27:35.466Z,996.09
2018-03-23T05:28:35.477Z,996.07
2018-03-23T05:29:35.490Z,996.06
2018-03-23T05:30:35.499Z,996.08
2018-03-23T05:31:35.552Z,996.05
2018-03-23T05:32:35.678Z,996.05
2018-03-23T05:33:35.607Z,996.01
2018-03-23T05:34:35.544Z,996.1
2018-03-23T05:35:35.558Z,996.1
2018-03-23T05:36:35.570Z,996.07
2018-03-23T05:37:35.578Z,996.08
2018-03-23T05:38:35.589Z,996.09
2018-03-23T05:39:35.601Z,996.06
2018-03-23T05:40:35.613Z,996.06
2018-03-23T05:41:35.623Z,996.04
2018-03-23T05:42:35.637Z,996.07
2018-03-23T05:43:35.711Z,996.08
2018-03-23T05:44:35.659Z,996.09
2018-03-23T05:45:35.700Z,996.12
2018-03-23T05:46:35.677Z,996.07
2018-03-23T05:47:35.690Z,996.08
2018-03-23T05:48:35.703Z,996.06
2018-03-23T05:49:35.712Z,996.09
2018-03-23T05:50:35.726Z,996.08
2018-03-23T05:51:35.735Z,996.09
2018-03-23T05:52:35.746Z,996.09
2018-03-23T05:53:35.760Z,996.1
2018-03-23T05:54:35.767Z,996.08
2018-03-23T05:55:35.780Z,996.12
2018-03-23T05:56:35.791Z,996.11
2018-03-23T05:57:35.804Z,996.13
2018-03-23T05:58:35.814Z,996.12
2018-03-23T05:59:35.830Z,996.11
2018-03-23T06:00:35.835Z,996.13
2018-03-23T06:01:35.908Z,996.13
2018-03-23T06:02:35.860Z,996.07
2018-03-23T06:03:35.868Z,996.09
2018-03-23T06:04:35.881Z,996.15
2018-03-23T06:05:35.894Z,996.15
2018-03-23T06:06:35.903Z,996.13
2018-03-23T06:07:35.916Z,996.11
2018-03-23T06:08:35.929Z,996.11
2018-03-23T06:09:35.952Z,996.1
2018-03-23T06:10:35.948Z,996.13
2018-03-23T06:11:35.962Z,996.08
2018-03-23T06:12:35.970Z,996.12
2018-03-23T06:13:35.982Z,996.13
2018-03-23T06:14:35.993Z,996.11
2018-03-23T06:15:36.004Z,996.1
2018-03-23T06:16:36.018Z,996.14
2018-03-23T06:17:36.027Z,996.16
2018-03-23T06:18:36.038Z,996.16
2018-03-23T06:19:36.050Z,996.21
2018-03-23T06:20:36.064Z,996.17
2018-03-23T06:21:36.072Z,996.19
2018-03-23T06:22:36.083Z,996.16
2018-03-23T06:23:36.095Z,996.18
2018-03-23T06:24:36.108Z,996.24
2018-03-23T06:25:36.117Z,996.18
2018-03-23T06:26:36.128Z,996.22
2018-03-23T06:27:36.140Z,996.23
2018-03-23T06:28:36.154Z,996.22
2018-03-23T06:29:36.172Z,996.21
2018-03-23T06:30:36.173Z,996.21
2018-03-23T06:31:36.185Z,996.23
2018-03-23T06:32:36.195Z,996.24
2018-03-23T06:33:36.258Z,996.24
2018-03-23T06:34:36.219Z,996.3
2018-03-23T06:35:36.240Z,996.25
2018-03-23T06:36:36.243Z,996.28
2018-03-23T06:37:36.253Z,996.3
2018-03-23T06:38:36.266Z,996.28
2018-03-23T06:39:36.282Z,996.31
2018-03-23T06:40:36.287Z,996.28
2018-03-23T06:41:36.316Z,996.23
2018-03-23T06:42:36.311Z,996.24
2018-03-23T06:43:36.320Z,996.24
2018-03-23T06:44:36.334Z,996.28
2018-03-23T06:45:36.343Z,996.27
2018-03-23T06:46:36.357Z,996.27
2018-03-23T06:47:36.366Z,996.28
2018-03-23T06:48:36.443Z,996.3
2018-03-23T06:49:36.389Z,996.28
2018-03-23T06:50:36.406Z,996.3
2018-03-23T06:51:36.411Z,996.28
2018-03-23T06:52:36.423Z,996.25
2018-03-23T06:53:36.434Z,996.29
2018-03-23T06:54:36.445Z,996.28
2018-03-23T06:55:36.458Z,996.28
2018-03-23T06:56:36.468Z,996.26
2018-03-23T06:57:36.479Z,996.31
2018-03-23T06:58:36.491Z,996.29
2018-03-23T06:59:36.503Z,996.29
2018-03-23T07:00:36.520Z,996.3
2018-03-23T07:01:36.529Z,996.28
2018-03-23T07:02:36.537Z,996.29
2018-03-23T07:03:36.598Z,996.3
2018-03-23T07:04:36.567Z,996.27
2018-03-23T07:05:36.569Z,996.34
2018-03-23T07:06:36.582Z,996.31
2018-03-23T07:07:36.594Z,996.32
2018-03-23T07:08:36.608Z,996.35
2018-03-23T07:09:36.616Z,996.36
2018-03-23T07:10:36.630Z,996.32
2018-03-23T07:11:36.640Z,996.39
2018-03-23T07:12:36.650Z,996.4
2018-03-23T07:13:36.662Z,996.36
2018-03-23T07:14:36.674Z,996.38
2018-03-23T07:15:36.728Z,996.41
2018-03-23T07:16:36.696Z,996.37
2018-03-23T07:17:36.707Z,996.42
2018-03-23T07:18:36.719Z,996.39
2018-03-23T07:19:36.731Z,996.44
2018-03-23T07:20:36.742Z,996.42
2018-03-23T07:21:36.754Z,996.41
2018-03-23T07:22:36.765Z,996.42
2018-03-23T07:23:36.776Z,996.36
2018-03-23T07:24:36.786Z,996.36
2018-03-23T07:25:36.799Z,996.41
2018-03-23T07:26:36.811Z,996.35
2018-03-23T07:27:36.822Z,996.36
2018-03-23T07:28:36.884Z,996.37
2018-03-23T07:29:36.845Z,996.33
2018-03-23T07:30:36.857Z,996.36
2018-03-23T07:31:36.868Z,996.36
2018-03-23T07:32:36.881Z,996.39
2018-03-23T07:33:36.941Z,996.36
2018-03-23T07:34:36.905Z,996.36
2018-03-23T07:35:36.918Z,996.38
2018-03-23T07:36:36.925Z,996.38
2018-03-23T07:37:36.938Z,996.35
2018-03-23T07:38:36.953Z,996.35
2018-03-23T07:39:36.962Z,996.34
2018-03-23T07:40:36.974Z,996.4
2018-03-23T07:41:36.985Z,996.41
2018-03-23T07:42:36.996Z,996.4
2018-03-23T07:43:37.061Z,996.43
2018-03-23T07:44:37.019Z,996.46
2018-03-23T07:45:37.033Z,996.42
2018-03-23T07:46:37.042Z,996.41
2018-03-23T07:47:37.054Z,996.44
2018-03-23T07:48:37.070Z,996.45
2018-03-23T07:49:37.094Z,996.43
2018-03-23T07:50:37.090Z,996.5
2018-03-23T07:51:37.100Z,996.45
2018-03-23T07:52:37.115Z,996.43
2018-03-23T07:53:37.125Z,996.42
2018-03-23T07:54:37.137Z,996.38
2018-03-23T07:55:37.149Z,996.42
2018-03-23T07:56:37.160Z,996.39
2018-03-23T07:57:37.173Z,996.39
2018-03-23T07:58:37.183Z,996.39
2018-03-23T07:59:37.195Z,996.42
2018-03-23T08:00:37.206Z,996.4
2018-03-23T08:01:37.217Z,996.44
2018-03-23T08:02:37.230Z,996.41
2018-03-23T08:03:37.296Z,996.44
2018-03-23T08:04:37.254Z,996.4
2018-03-23T08:05:37.266Z,996.35
2018-03-23T08:06:37.279Z,996.38
2018-03-23T08:07:37.289Z,996.33
2018-03-23T08:08:37.301Z,996.39
2018-03-23T08:09:37.312Z,996.35
2018-03-23T08:10:37.326Z,996.32
2018-03-23T08:11:37.338Z,996.37
2018-03-23T08:12:37.349Z,996.34
2018-03-23T08:13:37.362Z,996.34
2018-03-23T08:14:37.372Z,996.4
2018-03-23T08:15:37.385Z,996.39
2018-03-23T08:16:37.400Z,996.37
2018-03-23T08:17:37.409Z,996.44
2018-03-23T08:18:37.426Z,996.42
2018-03-23T08:19:37.432Z,996.41
2018-03-23T08:20:37.444Z,996.44
2018-03-23T08:21:37.457Z,996.39
2018-03-23T08:22:37.468Z,996.41
2018-03-23T08:23:37.480Z,996.38
2018-03-23T08:24:37.492Z,996.39
2018-03-23T08:25:37.505Z,996.33
2018-03-23T08:26:37.516Z,996.36
2018-03-23T08:27:37.530Z,996.35
2018-03-23T08:28:37.541Z,996.32
2018-03-23T08:29:37.553Z,996.35
2018-03-23T08:30:37.565Z,996.34
2018-03-23T08:31:37.590Z,996.38
2018-03-23T08:32:37.591Z,996.4
2018-03-23T08:33:37.601Z,996.4
2018-03-23T08:34:37.614Z,996.39
2018-03-23T08:35:37.628Z,996.35
2018-03-23T08:36:37.637Z,996.37
2018-03-23T08:37:37.650Z,996.42
2018-03-23T08:38:37.663Z,996.33
2018-03-23T08:39:37.675Z,996.33
2018-03-23T08:40:37.686Z,996.32
2018-03-23T08:41:37.700Z,996.33
2018-03-23T08:42:37.712Z,996.33
2018-03-23T08:43:37.726Z,996.35
2018-03-23T08:44:37.744Z,996.32
2018-03-23T08:45:37.750Z,996.32
2018-03-23T08:46:37.763Z,996.3
2018-03-23T08:47:37.776Z,996.3
2018-03-23T08:48:37.786Z,996.32
2018-03-23T08:49:37.806Z,996.29
2018-03-23T08:50:37.811Z,996.32
2018-03-23T08:51:37.822Z,996.27
2018-03-23T08:52:37.835Z,996.24
2018-03-23T08:53:37.849Z,996.27
2018-03-23T08:54:37.910Z,996.2
2018-03-23T08:55:37.874Z,996.26
2018-03-23T08:56:37.885Z,996.23
2018-03-23T08:57:37.899Z,996.24
2018-03-23T08:58:37.910Z,996.24
2018-03-23T08:59:37.974Z,996.23
2018-03-23T09:00:37.941Z,996.22
2018-03-23T09:01:37.953Z,996.21
2018-03-23T09:02:37.960Z,996.22
2018-03-23T09:03:37.974Z,996.18
2018-03-23T09:04:37.986Z,996.16
2018-03-23T09:05:37.999Z,996.14
2018-03-23T09:06:38.011Z,996.12
2018-03-23T09:07:38.024Z,996.11
2018-03-23T09:08:38.036Z,996.14
2018-03-23T09:09:38.079Z,996.09
2018-03-23T09:10:38.064Z,996.13
2018-03-23T09:11:38.075Z,996.11
2018-03-23T09:12:38.088Z,996.08
2018-03-23T09:13:38.100Z,996.15
2018-03-23T09:14:38.114Z,996.1
2018-03-23T09:15:38.126Z,996.11
2018-03-23T09:16:38.160Z,996.13
2018-03-23T09:17:38.153Z,996.14
2018-03-23T09:18:38.168Z,996.18
2018-03-23T09:19:38.179Z,996.16
2018-03-23T09:20:38.269Z,996.13
2018-03-23T09:21:38.204Z,996.15
2018-03-23T09:22:38.218Z,996.14
2018-03-23T09:23:38.232Z,996.17
2018-03-23T09:24:38.244Z,996.16
2018-03-23T09:25:38.256Z,996.15
2018-03-23T09:26:38.270Z,996.12
2018-03-23T09:27:38.283Z,996.13
2018-03-23T09:28:38.297Z,996.13
2018-03-23T09:29:38.310Z,996.12
2018-03-23T09:30:38.323Z,996.07
2018-03-23T09:31:38.336Z,996.1
2018-03-23T09:32:38.352Z,996.12
2018-03-23T09:33:38.361Z,996.08
2018-03-23T09:34:38.376Z,996.07
2018-03-23T09:35:38.388Z,996.08
2018-03-23T09:36:38.402Z,996.04
2018-03-23T09:37:38.415Z,996.08
2018-03-23T09:38:38.427Z,996.04
2018-03-23T09:39:38.448Z,996
2018-03-23T09:40:38.455Z,996
2018-03-23T09:41:38.468Z,996.02
2018-03-23T09:42:38.481Z,995.99
2018-03-23T09:43:38.495Z,995.99
2018-03-23T09:44:38.508Z,995.96
2018-03-23T09:45:38.527Z,995.96
2018-03-23T09:46:38.534Z,995.95
2018-03-23T09:47:38.547Z,995.94
2018-03-23T09:48:38.565Z,995.96
2018-03-23T09:49:38.575Z,995.95
2018-03-23T09:50:38.587Z,995.94
2018-03-23T09:51:38.601Z,995.97
2018-03-23T09:52:38.615Z,995.99
2018-03-23T09:53:38.628Z,995.96
2018-03-23T09:54:38.641Z,995.94
2018-03-23T09:55:38.655Z,995.95
2018-03-23T09:56:38.669Z,995.93
2018-03-23T09:57:38.681Z,995.97
2018-03-23T09:58:38.695Z,996
2018-03-23T09:59:38.709Z,995.98
2018-03-23T10:00:38.722Z,995.99
2018-03-23T10:01:38.736Z,995.95
2018-03-23T10:02:38.749Z,995.95
2018-03-23T10:03:38.762Z,995.92
2018-03-23T10:04:38.785Z,995.96
2018-03-23T10:05:38.789Z,995.99
2018-03-23T10:06:38.803Z,995.95
2018-03-23T10:07:38.821Z,995.91
2018-03-23T10:08:38.829Z,995.95
2018-03-23T10:09:38.843Z,995.92
2018-03-23T10:10:38.858Z,995.87
2018-03-23T10:11:38.877Z,995.83
2018-03-23T10:12:38.886Z,995.79
2018-03-23T10:13:38.897Z,995.85
2018-03-23T10:14:38.910Z,995.87
2018-03-23T10:15:38.923Z,995.85
2018-03-23T10:16:38.939Z,995.84
2018-03-23T10:17:38.952Z,995.81
2018-03-23T10:18:38.965Z,995.8
2018-03-23T10:19:38.979Z,995.82
2018-03-23T10:20:38.992Z,995.83
2018-03-23T10:21:39.023Z,995.8
2018-03-23T10:22:39.020Z,995.81
2018-03-23T10:23:39.035Z,995.8
2018-03-23T10:24:39.048Z,995.84
2018-03-23T10:25:39.064Z,995.77
2018-03-23T10:26:39.075Z,995.77
2018-03-23T10:27:39.093Z,995.74
2018-03-23T10:28:39.130Z,995.75
2018-03-23T10:29:39.118Z,995.74
2018-03-23T10:30:39.134Z,995.72
2018-03-23T10:31:39.145Z,995.7
2018-03-23T10:32:39.166Z,995.7
2018-03-23T10:33:39.173Z,995.66
2018-03-23T10:34:39.187Z,995.67
2018-03-23T10:35:39.201Z,995.7
2018-03-23T10:36:39.217Z,995.68
2018-03-23T10:37:39.228Z,995.67
2018-03-23T10:38:39.250Z,995.66
2018-03-23T10:39:39.257Z,995.68
2018-03-23T10:40:39.272Z,995.67
2018-03-23T10:41:39.286Z,995.64
2018-03-23T10:42:39.300Z,995.66
2018-03-23T10:43:39.319Z,995.7
2018-03-23T10:44:39.327Z,995.64
2018-03-23T10:45:39.342Z,995.66
2018-03-23T10:46:39.383Z,995.65
2018-03-23T10:47:39.371Z,995.63
2018-03-23T10:48:39.385Z,995.58
2018-03-23T10:49:39.399Z,995.58
2018-03-23T10:50:39.413Z,995.56
2018-03-23T10:51:39.429Z,995.53
2018-03-23T10:52:39.486Z,995.52
2018-03-23T10:53:39.457Z,995.54
2018-03-23T10:54:39.471Z,995.49
2018-03-23T10:55:39.486Z,995.53
2018-03-23T10:56:39.500Z,995.45
2018-03-23T10:57:39.514Z,995.45
2018-03-23T10:58:39.532Z,995.47
2018-03-23T10:59:39.561Z,995.47
2018-03-23T11:00:39.574Z,995.47
2018-03-23T11:01:39.572Z,995.47
2018-03-23T11:02:39.599Z,995.47
2018-03-23T11:03:39.601Z,995.47
2018-03-23T11:04:39.616Z,995.49
2018-03-23T11:05:39.637Z,995.52
2018-03-23T11:06:39.652Z,995.49
2018-03-23T11:07:39.661Z,995.58
2018-03-23T11:08:39.675Z,995.54
2018-03-23T11:09:39.690Z,995.51
2018-03-23T11:10:39.704Z,995.51
2018-03-23T11:11:39.718Z,995.47
2018-03-23T11:12:39.739Z,995.5
2018-03-23T11:13:39.748Z,995.47
2018-03-23T11:14:39.762Z,995.45
2018-03-23T11:15:39.778Z,995.47
2018-03-23T11:16:39.793Z,995.44
2018-03-23T11:17:39.808Z,995.45
2018-03-23T11:18:39.826Z,995.42
2018-03-23T11:19:39.837Z,995.43
2018-03-23T11:20:39.852Z,995.43
2018-03-23T11:21:39.866Z,995.43
2018-03-23T11:22:39.884Z,995.42
2018-03-23T11:23:39.897Z,995.47
2018-03-23T11:24:39.910Z,995.42
2018-03-23T11:25:39.928Z,995.45
2018-03-23T11:26:39.941Z,995.43
2018-03-23T11:27:39.957Z,995.45
2018-03-23T11:28:39.973Z,995.4
2018-03-23T11:29:39.985Z,995.47
2018-03-23T11:30:40.001Z,995.46
2018-03-23T11:31:40.016Z,995.44
2018-03-23T11:32:40.030Z,995.44
2018-03-23T11:33:40.045Z,995.43
2018-03-23T11:34:40.061Z,995.43
2018-03-23T11:35:40.075Z,995.43
2018-03-23T11:36:40.090Z,995.37
2018-03-23T11:37:40.106Z,995.43
2018-03-23T11:38:40.120Z,995.42
2018-03-23T11:39:40.136Z,995.42
2018-03-23T11:40:40.150Z,995.39
2018-03-23T11:41:40.165Z,995.4
2018-03-23T11:42:40.183Z,995.33
2018-03-23T11:43:40.195Z,995.32
2018-03-23T11:44:40.211Z,995.29
2018-03-23T11:45:40.228Z,995.32
2018-03-23T11:46:40.241Z,995.34
2018-03-23T11:47:40.256Z,995.32
2018-03-23T11:48:40.271Z,995.33
2018-03-23T11:49:40.287Z,995.32
2018-03-23T11:50:40.317Z,995.32
2018-03-23T11:51:40.318Z,995.35
2018-03-23T11:52:40.336Z,995.37
2018-03-23T11:53:40.347Z,995.34
2018-03-23T11:54:40.361Z,995.29
2018-03-23T11:55:40.377Z,995.32
2018-03-23T11:56:40.393Z,995.33
2018-03-23T11:57:40.407Z,995.33
2018-03-23T11:58:40.422Z,995.37
2018-03-23T11:59:40.439Z,995.35
2018-03-23T12:00:40.456Z,995.37
2018-03-23T12:01:40.468Z,995.32
2018-03-23T12:02:40.483Z,995.3
2018-03-23T12:03:40.500Z,995.29
2018-03-23T12:04:40.515Z,995.29
2018-03-23T12:05:40.539Z,995.26
2018-03-23T12:06:40.544Z,995.24
2018-03-23T12:07:40.559Z,995.18
2018-03-23T12:08:40.574Z,995.21
2018-03-23T12:09:40.590Z,995.21
2018-03-23T12:10:40.605Z,995.21
2018-03-23T12:11:40.620Z,995.23
2018-03-23T12:12:40.638Z,995.19
2018-03-23T12:13:40.651Z,995.18
2018-03-23T12:14:40.667Z,995.25
2018-03-23T12:15:40.682Z,995.24
2018-03-23T12:16:40.698Z,995.2
2018-03-23T12:17:40.713Z,995.22
2018-03-23T12:18:40.728Z,995.18
2018-03-23T12:19:40.742Z,995.19
2018-03-23T12:20:40.758Z,995.2
2018-03-23T12:21:40.779Z,995.18
2018-03-23T12:22:40.790Z,995.18
2018-03-23T12:23:40.804Z,995.14
2018-03-23T12:24:40.820Z,995.13
2018-03-23T12:25:40.835Z,995.17
2018-03-23T12:26:40.851Z,995.13
2018-03-23T12:27:40.866Z,995.16
2018-03-23T12:28:40.899Z,995.14
2018-03-23T12:29:40.898Z,995.11
2018-03-23T12:30:40.916Z,995.11